Time;durP1;ratioP1;P1;durP2;ratioP2;P2;SDS_P1;SDS_P2;PMS_P1;PMS_P2;Temp;Humidity;BMP_temperature;BMP_pressure;BME280_temperature;BME280_humidity;BME280_pressure;Samples;Min_cycle;Max_cycle;Signal;HPM_P1;HPM_P2
2023/01/27 00:00:11;;;;;;;10.73;1.50;;;7.20;99.90;;;;;;6308960;22;20224;-77
2023/01/27 00:03:01;;;;;;;12.40;2.23;;;7.20;99.90;;;;;;6308882;22;20463;-78
2023/01/27 00:05:28;;;;;;;9.03;1.40;;;7.20;99.90;;;;;;6281540;22;20418;-77
2023/01/27 00:07:57;;;;;;;5.03;1.37;;;7.20;99.90;;;;;;6281803;22;20139;-77
2023/01/27 00:10:28;;;;;;;8.97;1.43;;;7.20;99.90;;;;;;6281260;22;20153;-75
2023/01/27 00:15:44;;;;;;;7.47;1.60;;;7.10;99.90;;;;;;6308995;22;20589;-75
2023/01/27 00:18:13;;;;;;;8.73;1.90;;;7.10;99.90;;;;;;6281407;22;20495;-75
2023/01/27 00:26:25;;;;;;;9.37;1.67;;;7.30;99.90;;;;;;6308648;22;20174;-75
2023/01/27 00:28:58;;;;;;;9.07;2.03;;;7.30;99.90;;;;;;6281700;22;20207;-76
2023/01/27 00:34:14;;;;;;;6.63;1.70;;;7.20;99.90;;;;;;6309060;22;20565;-76
2023/01/27 00:36:43;;;;;;;5.07;1.40;;;7.20;99.90;;;;;;6281397;22;20146;-76
2023/01/27 00:39:12;;;;;;;11.33;1.87;;;7.10;99.90;;;;;;6308584;22;20437;-78
2023/01/27 00:41:40;;;;;;;11.17;1.87;;;7.20;99.90;;;;;;6281659;22;20226;-76
2023/01/27 00:44:11;;;;;;;11.03;2.00;;;7.10;99.90;;;;;;6281456;22;20627;-76
2023/01/27 00:46:44;;;;;;;10.50;2.10;;;7.20;99.90;;;;;;6309059;22;20618;-76
2023/01/27 00:49:13;;;;;;;10.17;1.60;;;7.20;99.90;;;;;;6281437;22;20134;-77
2023/01/27 00:51:41;;;;;;;15.40;2.00;;;7.10;99.90;;;;;;6281180;22;20196;-76
2023/01/27 00:54:09;;;;;;;8.87;1.80;;;7.10;99.90;;;;;;6281148;22;20153;-76
2023/01/27 00:56:35;;;;;;;13.97;1.63;;;7.10;99.90;;;;;;6308640;22;20228;-76
2023/01/27 00:59:04;;;;;;;11.10;1.63;;;7.10;99.90;;;;;;6308703;22;20163;-76
2023/01/27 01:01:31;;;;;;;13.90;1.87;;;7.10;99.90;;;;;;6281145;22;20156;-76
2023/01/27 01:03:57;;;;;;;10.83;2.57;;;7.00;99.90;;;;;;6281627;22;20411;-76
2023/01/27 01:06:26;;;;;;;7.17;1.60;;;7.10;99.90;;;;;;6308528;22;20132;-75
2023/01/27 01:08:56;;;;;;;12.50;1.80;;;7.10;99.90;;;;;;6280945;22;20181;-76
2023/01/27 01:11:40;;;;;;;9.57;1.47;;;7.20;99.90;;;;;;6280936;22;20187;-77
2023/01/27 01:14:05;;;;;;;12.20;2.27;;;7.20;99.90;;;;;;6308945;22;20149;-76
2023/01/27 01:16:32;;;;;;;5.03;1.13;;;7.20;99.90;;;;;;6281237;22;20189;-76
2023/01/27 01:19:00;;;;;;;7.53;1.73;;;7.10;99.90;;;;;;6308353;22;20222;-76
2023/01/27 01:21:28;;;;;;;9.13;2.33;;;7.10;99.90;;;;;;6280862;22;20159;-77
2023/01/27 01:23:55;;;;;;;11.47;1.83;;;7.10;99.90;;;;;;6281171;22;20232;-76
2023/01/27 01:26:24;;;;;;;8.50;1.77;;;7.10;99.90;;;;;;6280923;22;20162;-76
2023/01/27 01:28:53;;;;;;;12.33;2.00;;;7.00;99.90;;;;;;6280844;22;20158;-77
2023/01/27 01:31:21;;;;;;;12.53;1.90;;;7.10;99.90;;;;;;6280453;22;20134;-76
2023/01/27 01:33:48;;;;;;;6.43;1.53;;;7.10;99.90;;;;;;6280970;22;20155;-76
2023/01/27 01:36:18;;;;;;;8.97;1.60;;;7.00;99.90;;;;;;6280885;22;20233;-76
2023/01/27 01:38:44;;;;;;;5.53;1.60;;;7.00;99.90;;;;;;6281314;22;20197;-76
2023/01/27 01:41:19;;;;;;;11.13;1.80;;;7.10;99.90;;;;;;6308239;22;20557;-76
2023/01/27 01:43:47;;;;;;;8.73;1.50;;;7.10;99.90;;;;;;6308258;22;20130;-76
2023/01/27 01:46:13;;;;;;;10.87;2.40;;;7.10;99.90;;;;;;6242489;22;20255;-78
2023/01/27 01:48:52;;;;;;;11.33;1.47;;;7.10;99.90;;;;;;6246468;22;20154;-78
2023/01/27 01:51:41;;;;;;;8.97;1.97;;;7.10;99.90;;;;;;6246782;23;20160;-78
2023/01/27 01:54:20;;;;;;;7.93;1.53;;;6.90;99.90;;;;;;6248821;22;20577;-79
2023/01/27 01:56:56;;;;;;;5.23;1.60;;;7.00;99.90;;;;;;6247051;23;20152;-79
2023/01/27 01:59:47;;;;;;;8.97;1.50;;;7.00;99.90;;;;;;6246786;23;20233;-79
2023/01/27 02:02:20;;;;;;;5.10;1.73;;;6.90;99.90;;;;;;6247222;23;20650;-79
2023/01/27 02:05:00;;;;;;;5.33;2.00;;;6.80;99.90;;;;;;6248217;22;20170;-79
2023/01/27 02:07:34;;;;;;;10.53;1.43;;;6.90;99.90;;;;;;6248798;23;20227;-79
2023/01/27 02:10:01;;;;;;;12.47;1.77;;;7.00;99.90;;;;;;6247000;22;20156;-79
2023/01/27 02:12:30;;;;;;;11.93;2.30;;;7.00;99.90;;;;;;6246952;23;20174;-79
2023/01/27 02:14:57;;;;;;;11.77;1.60;;;7.00;99.90;;;;;;6248540;23;20145;-79
2023/01/27 02:17:30;;;;;;;11.47;1.97;;;6.90;99.90;;;;;;6246258;23;20157;-79
2023/01/27 02:20:24;;;;;;;6.53;2.03;;;6.80;99.90;;;;;;6247329;22;20148;-79
2023/01/27 02:23:14;;;;;;;7.57;1.57;;;6.80;99.90;;;;;;6245863;23;20206;-79
2023/01/27 02:25:56;;;;;;;9.60;1.43;;;6.90;99.90;;;;;;6245961;23;20547;-79
2023/01/27 02:28:27;;;;;;;12.57;2.37;;;6.90;99.90;;;;;;6245761;23;20157;-79
2023/01/27 02:30:55;;;;;;;6.87;1.77;;;6.90;99.90;;;;;;6245699;23;20159;-79
2023/01/27 02:33:30;;;;;;;9.13;2.37;;;7.00;99.90;;;;;;6246050;23;20225;-79
2023/01/27 02:36:12;;;;;;;8.57;1.87;;;6.90;99.90;;;;;;6245760;23;20218;-79
2023/01/27 02:38:48;;;;;;;10.77;1.93;;;6.90;99.90;;;;;;6245965;23;20157;-79
2023/01/27 02:41:33;;;;;;;7.37;1.70;;;6.90;99.90;;;;;;6245726;23;20589;-79
2023/01/27 02:43:59;;;;;;;10.97;2.50;;;7.00;99.90;;;;;;6245991;23;20489;-79
2023/01/27 02:46:31;;;;;;;8.33;2.17;;;6.90;99.90;;;;;;6245657;23;20159;-79
2023/01/27 02:49:02;;;;;;;8.37;2.27;;;6.80;99.90;;;;;;6245628;23;20169;-79
2023/01/27 02:51:36;;;;;;;9.03;2.20;;;6.80;99.90;;;;;;6246046;23;20167;-79
2023/01/27 02:54:05;;;;;;;7.60;2.13;;;6.80;99.90;;;;;;6248447;23;20130;-79
2023/01/27 02:56:31;;;;;;;6.60;1.97;;;6.70;99.90;;;;;;6246250;23;20198;-79
2023/01/27 02:58:59;;;;;;;9.83;1.90;;;6.60;99.90;;;;;;6247908;22;20130;-79
2023/01/27 03:01:37;;;;;;;9.07;2.20;;;6.60;99.90;;;;;;6246180;23;20486;-79
2023/01/27 03:04:10;;;;;;;10.57;2.33;;;6.70;99.90;;;;;;6246230;23;20228;-79
2023/01/27 03:06:37;;;;;;;10.47;2.10;;;6.70;99.90;;;;;;6246777;23;20207;-79
2023/01/27 03:09:04;;;;;;;6.33;2.03;;;6.80;99.90;;;;;;6246266;23;20571;-79
2023/01/27 03:14:17;;;;;;;6.80;2.20;;;6.80;99.90;;;;;;6248346;23;20196;-79
2023/01/27 03:19:38;;;;;;;7.63;2.00;;;6.70;99.90;;;;;;6245635;23;20163;-80
2023/01/27 03:22:04;;;;;;;7.30;1.93;;;6.70;99.90;;;;;;6245521;23;20219;-79
2023/01/27 03:24:33;;;;;;;7.77;2.50;;;6.70;99.90;;;;;;6245327;23;20155;-78
2023/01/27 03:27:02;;;;;;;6.13;2.17;;;6.70;99.90;;;;;;6244036;23;20207;-79
2023/01/27 03:32:16;;;;;;;8.90;3.07;;;6.60;99.90;;;;;;6245550;23;20213;-79
2023/01/27 03:34:44;;;;;;;5.70;2.00;;;6.50;99.90;;;;;;6243900;23;20147;-79
2023/01/27 03:48:23;;;;;;;6.43;2.30;;;6.40;99.90;;;;;;6247733;23;20492;-79
2023/01/27 03:50:54;;;;;;;13.63;2.67;;;6.40;99.90;;;;;;6246212;23;20231;-79
2023/01/27 03:53:20;;;;;;;9.73;3.40;;;6.50;99.90;;;;;;6245975;23;20169;-80
2023/01/27 03:55:51;;;;;;;9.67;2.73;;;6.50;99.90;;;;;;6247962;23;20169;-79
2023/01/27 03:58:30;;;;;;;8.67;2.73;;;6.50;99.90;;;;;;6247802;23;20275;-79
2023/01/27 04:01:06;;;;;;;14.90;3.60;;;6.40;99.90;;;;;;6249343;22;20132;-79
2023/01/27 04:09:10;;;;;;;8.07;3.43;;;6.50;99.90;;;;;;6249423;23;20157;-79
2023/01/27 04:11:54;;;;;;;10.33;3.20;;;6.40;99.90;;;;;;6249286;22;20221;-79
2023/01/27 04:14:43;;;;;;;10.37;3.80;;;6.30;99.90;;;;;;6247819;23;20152;-79
2023/01/27 04:17:24;;;;;;;7.73;3.40;;;6.30;99.90;;;;;;6247705;23;20227;-78
2023/01/27 04:19:52;;;;;;;9.07;3.00;;;6.20;99.90;;;;;;6249642;23;20165;-78
2023/01/27 04:22:18;;;;;;;6.93;3.63;;;6.10;99.90;;;;;;6247640;23;20175;-78
2023/01/27 04:24:46;;;;;;;10.27;2.73;;;6.00;99.90;;;;;;6248854;23;20134;-80
2023/01/27 04:27:14;;;;;;;9.17;3.43;;;6.00;99.90;;;;;;6247272;23;20152;-80
2023/01/27 04:29:43;;;;;;;7.27;3.23;;;6.10;99.90;;;;;;6247990;23;20154;-78
2023/01/27 04:32:14;;;;;;;7.20;3.07;;;6.10;99.90;;;;;;6246910;23;20616;-78
2023/01/27 04:34:44;;;;;;;7.67;3.10;;;6.20;99.90;;;;;;6247661;23;20156;-78
2023/01/27 04:37:13;;;;;;;5.00;2.50;;;6.10;99.90;;;;;;6246986;23;20588;-79
2023/01/27 04:39:44;;;;;;;11.60;3.23;;;6.20;99.90;;;;;;6247440;23;20153;-80
2023/01/27 04:42:12;;;;;;;9.40;3.57;;;6.10;99.90;;;;;;6247571;23;20168;-80
2023/01/27 04:44:38;;;;;;;8.60;3.60;;;6.10;99.90;;;;;;6247282;23;20155;-79
2023/01/27 04:47:04;;;;;;;7.10;3.53;;;6.10;99.90;;;;;;6247158;23;20251;-79
2023/01/27 04:49:33;;;;;;;15.57;3.70;;;6.10;99.90;;;;;;6247651;23;20163;-80
2023/01/27 04:52:02;;;;;;;12.23;3.33;;;6.00;99.90;;;;;;6247291;23;20693;-80
2023/01/27 04:54:33;;;;;;;8.37;3.47;;;6.00;99.90;;;;;;6247182;22;20157;-80
2023/01/27 04:57:04;;;;;;;5.93;3.53;;;6.00;99.90;;;;;;6247330;23;20493;-79
2023/01/27 04:59:33;;;;;;;7.10;3.53;;;5.80;99.90;;;;;;6247678;23;20235;-79
2023/01/27 05:02:03;;;;;;;7.67;3.67;;;5.90;99.90;;;;;;6247728;23;20484;-79
2023/01/27 05:04:32;;;;;;;14.43;3.80;;;5.70;99.90;;;;;;6247263;23;20276;-79
2023/01/27 05:06:58;;;;;;;6.60;3.90;;;5.60;99.90;;;;;;6249185;22;20139;-79
2023/01/27 05:09:25;;;;;;;10.53;4.30;;;5.60;99.90;;;;;;6246473;23;20264;-76
2023/01/27 05:11:58;;;;;;;10.43;4.03;;;5.60;99.90;;;;;;6245099;23;20175;-79
2023/01/27 05:14:27;;;;;;;10.77;3.37;;;5.60;99.90;;;;;;6244831;23;20149;-79
2023/01/27 05:17:09;;;;;;;7.57;3.47;;;5.60;99.90;;;;;;6244890;23;20574;-79
2023/01/27 05:19:53;;;;;;;9.60;3.70;;;5.50;99.90;;;;;;6246774;23;20251;-79
2023/01/27 05:22:25;;;;;;;9.63;4.07;;;5.50;99.90;;;;;;6245089;23;20651;-79
2023/01/27 05:24:53;;;;;;;9.73;3.83;;;5.50;99.90;;;;;;6246626;23;20151;-79
2023/01/27 05:27:22;;;;;;;6.37;3.70;;;5.40;99.90;;;;;;6245092;23;20160;-79
2023/01/27 05:29:49;;;;;;;9.97;3.90;;;5.50;99.90;;;;;;6246552;23;20152;-79
2023/01/27 05:32:15;;;;;;;8.43;3.63;;;5.50;99.90;;;;;;6244798;23;20164;-79
2023/01/27 05:34:41;;;;;;;10.70;3.53;;;5.70;99.90;;;;;;6246502;23;20131;-79
2023/01/27 05:37:10;;;;;;;7.53;3.43;;;5.70;99.90;;;;;;6246409;23;20185;-79
2023/01/27 05:39:35;;;;;;;9.93;3.27;;;5.70;99.90;;;;;;6245229;23;20492;-78
2023/01/27 05:42:04;;;;;;;8.90;3.90;;;5.90;99.90;;;;;;6244689;23;20145;-79
2023/01/27 05:44:33;;;;;;;8.33;4.10;;;6.00;99.90;;;;;;6244609;23;20200;-79
2023/01/27 05:46:59;;;;;;;8.87;3.70;;;5.90;99.90;;;;;;6246705;23;20158;-79
2023/01/27 05:49:27;;;;;;;11.47;4.80;;;5.90;99.90;;;;;;6244888;23;20156;-78
2023/01/27 05:51:54;;;;;;;9.07;4.30;;;5.90;99.90;;;;;;6244310;23;20479;-79
2023/01/27 05:54:23;;;;;;;10.83;4.53;;;5.80;99.90;;;;;;6244627;23;20570;-78
2023/01/27 05:56:51;;;;;;;9.07;4.97;;;5.70;99.90;;;;;;6244516;23;20155;-78
2023/01/27 05:59:18;;;;;;;9.77;4.47;;;5.70;99.90;;;;;;6244820;23;20156;-78
2023/01/27 06:01:44;;;;;;;9.00;4.57;;;5.60;99.90;;;;;;6245172;23;20587;-78
2023/01/27 06:04:12;;;;;;;10.07;4.77;;;5.40;99.90;;;;;;6244758;23;20199;-79
2023/01/27 06:06:41;;;;;;;8.73;4.57;;;5.40;99.90;;;;;;6244438;23;20238;-79
2023/01/27 06:09:13;;;;;;;8.70;5.20;;;5.50;99.90;;;;;;6244372;23;20234;-79
2023/01/27 06:11:46;;;;;;;11.33;4.70;;;5.50;99.90;;;;;;6244864;23;20192;-79
2023/01/27 06:14:14;;;;;;;11.67;5.40;;;5.50;99.90;;;;;;6244240;23;20478;-79
2023/01/27 06:17:00;;;;;;;14.53;5.73;;;5.50;99.90;;;;;;6244281;23;20152;-79
2023/01/27 06:19:29;;;;;;;12.63;5.03;;;5.50;99.90;;;;;;6244340;23;20617;-79
2023/01/27 06:21:58;;;;;;;11.77;5.77;;;5.60;99.90;;;;;;6244859;23;20148;-79
2023/01/27 06:24:27;;;;;;;10.60;5.03;;;5.60;99.90;;;;;;6244333;23;20152;-78
2023/01/27 06:26:56;;;;;;;10.57;4.77;;;5.60;99.90;;;;;;6245768;23;20148;-79
2023/01/27 06:29:21;;;;;;;12.27;5.40;;;5.50;99.90;;;;;;6244438;23;20158;-79
2023/01/27 06:31:48;;;;;;;11.87;6.00;;;5.30;99.90;;;;;;6246254;23;20179;-79
2023/01/27 06:34:17;;;;;;;8.90;5.63;;;5.50;99.90;;;;;;6246248;23;20165;-79
2023/01/27 06:36:45;;;;;;;14.47;6.33;;;5.50;99.90;;;;;;6245963;23;20149;-79
2023/01/27 06:39:18;;;;;;;14.03;6.27;;;5.40;99.90;;;;;;6246873;23;20569;-79
2023/01/27 06:41:48;;;;;;;11.43;6.07;;;5.30;99.90;;;;;;6246204;23;20156;-79
2023/01/27 06:44:14;;;;;;;9.90;5.53;;;5.30;99.90;;;;;;6245908;23;20492;-78
2023/01/27 06:46:43;;;;;;;12.03;6.40;;;5.30;99.90;;;;;;6245790;23;20190;-79
2023/01/27 06:49:09;;;;;;;14.10;6.60;;;5.40;99.90;;;;;;6246932;23;20152;-79
2023/01/27 06:51:37;;;;;;;11.97;6.10;;;5.30;99.90;;;;;;6245967;23;20548;-79
2023/01/27 06:54:09;;;;;;;10.00;5.53;;;5.40;99.90;;;;;;6246859;23;20213;-81
2023/01/27 06:56:36;;;;;;;12.97;6.07;;;5.50;99.90;;;;;;6243723;23;20571;-78
2023/01/27 06:59:02;;;;;;;12.97;7.10;;;5.40;99.90;;;;;;6244371;23;20175;-79
2023/01/27 07:01:27;;;;;;;14.17;6.67;;;5.50;99.90;;;;;;6244406;22;20590;-80
2023/01/27 07:03:56;;;;;;;11.83;6.63;;;5.50;99.90;;;;;;6243776;23;20167;-80
2023/01/27 07:06:22;;;;;;;8.97;5.60;;;5.50;99.90;;;;;;6244314;23;20156;-79
2023/01/27 07:08:50;;;;;;;12.60;6.73;;;5.50;99.90;;;;;;6244227;23;20151;-79
2023/01/27 07:11:21;;;;;;;20.43;7.43;;;5.40;99.90;;;;;;6243645;23;20494;-79
2023/01/27 07:14:01;;;;;;;13.90;7.23;;;5.30;99.90;;;;;;6243855;23;20147;-79
2023/01/27 07:16:30;;;;;;;13.83;7.57;;;5.30;99.90;;;;;;6244074;23;20531;-80
2023/01/27 07:19:05;;;;;;;16.30;6.93;;;5.20;99.90;;;;;;6243849;23;20161;-79
2023/01/27 07:21:33;;;;;;;13.50;6.47;;;5.30;99.90;;;;;;6243947;23;20140;-79
2023/01/27 07:24:05;;;;;;;15.47;7.80;;;5.20;99.90;;;;;;6243817;22;20145;-79
2023/01/27 07:26:46;;;;;;;18.17;8.13;;;5.20;99.90;;;;;;6246071;22;20142;-80
2023/01/27 07:29:28;;;;;;;15.30;7.10;;;5.20;99.90;;;;;;6245102;23;20147;-80
2023/01/27 07:31:55;;;;;;;16.00;7.73;;;5.10;99.90;;;;;;6246070;23;20172;-79
2023/01/27 07:34:24;;;;;;;14.53;7.87;;;5.00;99.90;;;;;;6246599;23;20832;-79
2023/01/27 07:36:51;;;;;;;17.50;7.47;;;5.00;99.90;;;;;;6246201;23;20512;-79
2023/01/27 07:39:18;;;;;;;20.17;8.00;;;4.90;99.90;;;;;;6245971;23;20150;-79
2023/01/27 07:41:47;;;;;;;14.87;8.13;;;4.80;99.90;;;;;;6246027;23;20634;-79
2023/01/27 07:44:16;;;;;;;17.10;7.47;;;4.90;99.90;;;;;;6246063;23;20178;-79
2023/01/27 07:46:44;;;;;;;17.67;9.23;;;4.80;99.90;;;;;;6246036;23;20179;-79
2023/01/27 07:49:11;;;;;;;18.27;9.37;;;4.70;99.90;;;;;;6245484;23;20184;-79
2023/01/27 07:51:37;;;;;;;20.47;9.20;;;4.90;99.90;;;;;;6245535;23;20200;-79
2023/01/27 07:54:04;;;;;;;18.03;9.50;;;4.90;99.90;;;;;;6245143;23;20167;-79
2023/01/27 07:56:31;;;;;;;19.67;9.60;;;5.00;99.90;;;;;;6243561;23;20143;-79
2023/01/27 07:58:58;;;;;;;19.10;8.63;;;5.00;99.90;;;;;;6243799;23;20451;-79
2023/01/27 08:01:23;;;;;;;20.07;8.77;;;5.20;99.90;;;;;;6243970;23;20151;-80
2023/01/27 08:03:49;;;;;;;18.33;9.60;;;5.30;99.90;;;;;;6245439;23;20131;-79
2023/01/27 08:06:15;;;;;;;18.70;9.23;;;5.20;99.90;;;;;;6243512;23;20152;-79
2023/01/27 08:08:40;;;;;;;17.23;9.60;;;5.10;99.90;;;;;;6243739;23;20154;-79
2023/01/27 08:11:09;;;;;;;21.57;9.17;;;5.20;99.90;;;;;;6244755;23;20153;-79
2023/01/27 08:13:35;;;;;;;20.00;9.77;;;5.20;99.90;;;;;;6245987;23;20181;-80
2023/01/27 08:16:04;;;;;;;17.73;9.43;;;5.20;99.90;;;;;;6245143;23;20156;-80
2023/01/27 08:18:34;;;;;;;18.40;9.83;;;5.30;99.90;;;;;;6247146;22;20129;-79
2023/01/27 08:21:04;;;;;;;16.90;8.67;;;5.30;99.90;;;;;;6245352;23;20152;-79
2023/01/27 08:23:31;;;;;;;22.17;9.47;;;5.20;99.90;;;;;;6245137;23;20183;-80
2023/01/27 08:25:59;;;;;;;17.47;8.90;;;5.30;99.90;;;;;;6245114;23;20158;-80
2023/01/27 08:28:26;;;;;;;21.73;9.20;;;5.30;99.90;;;;;;6245424;23;20191;-80
2023/01/27 08:30:52;;;;;;;15.83;7.83;;;5.40;99.90;;;;;;6244866;23;20159;-80
2023/01/27 08:33:22;;;;;;;14.10;8.07;;;5.50;99.90;;;;;;6244942;23;20177;-80
2023/01/27 08:35:49;;;;;;;13.30;7.20;;;5.60;99.90;;;;;;6244925;23;20162;-80
2023/01/27 08:38:17;;;;;;;16.87;7.67;;;5.70;99.90;;;;;;6245931;23;20533;-80
2023/01/27 08:40:44;;;;;;;12.63;7.00;;;5.60;99.90;;;;;;6244655;23;20576;-80
2023/01/27 08:43:12;;;;;;;15.83;8.37;;;5.70;99.90;;;;;;6244762;23;20156;-79
2023/01/27 08:45:37;;;;;;;15.37;8.00;;;5.70;99.90;;;;;;6244402;23;20201;-80
2023/01/27 08:48:05;;;;;;;12.33;7.00;;;5.70;99.90;;;;;;6244557;23;20154;-79
2023/01/27 08:50:32;;;;;;;18.03;7.10;;;5.80;99.90;;;;;;6244835;23;20159;-79
2023/01/27 08:52:58;;;;;;;13.90;6.90;;;5.80;99.90;;;;;;6246079;22;20651;-79
2023/01/27 08:55:28;;;;;;;11.87;6.90;;;5.80;99.90;;;;;;6245040;23;20144;-79
2023/01/27 08:57:54;;;;;;;12.13;6.63;;;5.80;99.90;;;;;;6246768;22;20504;-79
2023/01/27 09:00:21;;;;;;;12.40;6.53;;;5.80;99.90;;;;;;6245138;23;20587;-79
2023/01/27 09:02:47;;;;;;;12.40;7.00;;;5.80;99.90;;;;;;6244911;23;20144;-79
2023/01/27 09:05:13;;;;;;;12.60;6.90;;;5.80;99.90;;;;;;6244527;23;20481;-79
2023/01/27 09:07:39;;;;;;;12.90;6.93;;;6.00;99.90;;;;;;6244512;23;20148;-80
2023/01/27 09:10:05;;;;;;;14.07;7.20;;;6.00;99.90;;;;;;6246156;22;20145;-81
2023/01/27 09:12:31;;;;;;;12.47;7.53;;;6.00;99.90;;;;;;6244534;23;20205;-80
2023/01/27 09:14:57;;;;;;;11.77;7.00;;;6.10;99.90;;;;;;6244728;23;20146;-81
2023/01/27 09:17:24;;;;;;;11.43;6.97;;;6.10;99.90;;;;;;6246079;22;20211;-79
2023/01/27 09:19:50;;;;;;;9.70;6.67;;;6.00;99.90;;;;;;6244268;23;20200;-79
2023/01/27 09:22:16;;;;;;;12.10;6.33;;;5.90;99.90;;;;;;6244175;23;20158;-79
2023/01/27 09:24:42;;;;;;;13.47;6.90;;;6.00;99.90;;;;;;6244448;23;20162;-79
2023/01/27 09:27:07;;;;;;;11.87;6.80;;;6.00;99.90;;;;;;6244610;23;20152;-80
2023/01/27 09:29:33;;;;;;;12.83;7.00;;;6.00;99.90;;;;;;6245213;23;20199;-81
2023/01/27 09:31:59;;;;;;;12.40;7.27;;;6.10;99.90;;;;;;6245020;23;20504;-80
2023/01/27 09:34:24;;;;;;;12.47;7.37;;;6.00;99.90;;;;;;6244664;23;20531;-81
2023/01/27 09:37:04;;;;;;;10.73;7.07;;;6.00;99.90;;;;;;6245128;23;20573;-81
2023/01/27 09:39:36;;;;;;;10.60;6.47;;;6.10;99.90;;;;;;6245235;23;20154;-81
2023/01/27 09:42:12;;;;;;;11.63;6.30;;;6.10;99.90;;;;;;6246677;22;20501;-81
2023/01/27 09:44:54;;;;;;;10.00;6.57;;;6.00;99.90;;;;;;6246574;22;20171;-81
2023/01/27 09:47:55;;;;;;;10.20;6.03;;;6.00;99.90;;;;;;6244930;23;20292;-81
2023/01/27 09:50:46;;;;;;;10.50;6.90;;;6.10;99.90;;;;;;6245074;23;20570;-81
2023/01/27 09:53:27;;;;;;;11.70;6.83;;;6.10;99.90;;;;;;6244402;23;20179;-81
2023/01/27 09:56:02;;;;;;;11.63;6.47;;;6.00;99.90;;;;;;6247166;22;20563;-81
2023/01/27 09:58:34;;;;;;;11.63;6.47;;;6.10;99.90;;;;;;6245698;22;20128;-80
2023/01/27 10:01:21;;;;;;;11.03;6.83;;;6.00;99.90;;;;;;6245801;23;20160;-81
2023/01/27 10:04:08;;;;;;;9.57;6.37;;;6.10;99.90;;;;;;6244081;23;20152;-80
2023/01/27 10:06:47;;;;;;;10.33;6.30;;;6.10;99.90;;;;;;6244195;23;20204;-81
2023/01/27 10:09:49;;;;;;;9.13;5.67;;;6.20;99.90;;;;;;6243896;23;20551;-81
2023/01/27 10:12:22;;;;;;;8.17;5.50;;;6.20;99.90;;;;;;6245017;23;20625;-81
2023/01/27 10:14:48;;;;;;;9.83;6.37;;;6.10;99.90;;;;;;6246460;23;20132;-81
2023/01/27 10:17:45;;;;;;;9.07;5.87;;;6.20;99.90;;;;;;6244708;23;20602;-81
2023/01/27 10:20:45;;;;;;;8.63;5.33;;;6.20;99.90;;;;;;6244774;23;20581;-80
2023/01/27 10:23:32;;;;;;;8.93;5.37;;;6.10;99.90;;;;;;6244731;23;20499;-81
2023/01/27 10:26:17;;;;;;;9.17;5.90;;;6.00;99.90;;;;;;6244743;23;20155;-81
2023/01/27 10:28:50;;;;;;;10.93;6.03;;;6.00;99.90;;;;;;6243463;23;20152;-80
2023/01/27 10:31:31;;;;;;;8.90;5.13;;;6.00;99.90;;;;;;6243569;23;20282;-80
2023/01/27 10:34:02;;;;;;;7.70;5.83;;;6.00;99.90;;;;;;6243129;23;20156;-81
2023/01/27 10:36:54;;;;;;;9.67;5.50;;;6.10;99.90;;;;;;6243460;23;20178;-80
2023/01/27 10:39:45;;;;;;;7.93;5.17;;;6.10;99.90;;;;;;6245208;22;20140;-80
2023/01/27 10:42:40;;;;;;;8.63;5.70;;;6.10;99.90;;;;;;6244697;23;20156;-80
2023/01/27 10:45:22;;;;;;;13.67;8.63;;;6.20;99.90;;;;;;6244440;23;20172;-81
2023/01/27 10:48:13;;;;;;;9.37;5.83;;;6.30;99.90;;;;;;6245608;22;20140;-80
2023/01/27 10:50:49;;;;;;;7.67;5.13;;;6.30;99.90;;;;;;6244645;23;20159;-81
2023/01/27 10:53:47;;;;;;;7.50;5.47;;;6.30;99.90;;;;;;6244599;23;20183;-80
2023/01/27 10:56:32;;;;;;;8.57;5.13;;;6.20;99.90;;;;;;6244643;23;20183;-80
2023/01/27 10:59:28;;;;;;;8.50;5.17;;;6.10;99.90;;;;;;6244470;23;20590;-81
2023/01/27 11:02:08;;;;;;;8.33;4.87;;;6.00;99.90;;;;;;6243646;23;20467;-81
2023/01/27 11:04:46;;;;;;;7.23;5.30;;;6.00;99.90;;;;;;6245889;23;20540;-81
2023/01/27 11:07:20;;;;;;;6.40;4.53;;;6.20;99.90;;;;;;6246826;23;20461;-80
2023/01/27 11:09:55;;;;;;;7.13;4.80;;;6.30;99.90;;;;;;6246795;23;20584;-81
2023/01/27 11:12:50;;;;;;;7.40;4.53;;;6.30;99.90;;;;;;6246774;23;20169;-81
2023/01/27 11:15:23;;;;;;;7.00;5.13;;;6.40;99.90;;;;;;6238014;23;20159;-81
2023/01/27 11:18:02;;;;;;;5.60;4.43;;;6.50;99.90;;;;;;6247151;23;20152;-80
2023/01/27 11:20:45;;;;;;;5.50;4.20;;;6.70;99.90;;;;;;6247280;23;20155;-81
2023/01/27 11:23:18;;;;;;;5.80;3.90;;;6.80;99.90;;;;;;6246830;23;20143;-81
2023/01/27 11:25:59;;;;;;;5.70;3.87;;;6.90;99.90;;;;;;6247018;23;20149;-80
2023/01/27 11:28:56;;;;;;;6.20;4.20;;;6.90;99.90;;;;;;6246844;23;20154;-81
2023/01/27 11:31:34;;;;;;;5.93;4.07;;;7.00;99.90;;;;;;6246514;23;20155;-81
2023/01/27 11:34:03;;;;;;;4.40;3.30;;;7.00;99.90;;;;;;6247112;23;20466;-81
2023/01/27 11:36:29;;;;;;;6.90;3.70;;;7.00;99.90;;;;;;6246832;23;20610;-81
2023/01/27 11:38:57;;;;;;;7.73;4.00;;;6.80;99.90;;;;;;6248512;23;20158;-81
2023/01/27 11:41:24;;;;;;;4.37;3.30;;;6.80;99.90;;;;;;6247051;23;20213;-80
2023/01/27 11:43:50;;;;;;;5.27;3.90;;;6.90;99.90;;;;;;6248681;22;20139;-81
2023/01/27 11:46:22;;;;;;;4.43;3.37;;;6.80;99.90;;;;;;6246424;23;20168;-80
2023/01/27 11:48:57;;;;;;;7.03;3.27;;;6.70;99.90;;;;;;6246095;23;20163;-81
2023/01/27 11:51:25;;;;;;;5.70;3.63;;;6.70;99.90;;;;;;6245280;22;20608;-80
2023/01/27 11:54:04;;;;;;;4.00;3.17;;;6.80;99.90;;;;;;6246304;23;20151;-80
2023/01/27 11:56:32;;;;;;;5.10;3.40;;;6.80;99.90;;;;;;6245755;23;20152;-80
2023/01/27 11:59:02;;;;;;;4.73;3.10;;;7.00;99.90;;;;;;6245643;23;20544;-80
2023/01/27 12:01:48;;;;;;;4.93;3.30;;;6.90;99.90;;;;;;6245261;23;20200;-80
2023/01/27 12:04:20;;;;;;;5.90;3.13;;;6.80;99.90;;;;;;6245262;23;20592;-80
2023/01/27 12:07:03;;;;;;;4.07;3.27;;;6.70;99.90;;;;;;6245281;23;20149;-80
2023/01/27 12:09:40;;;;;;;5.37;3.40;;;6.60;99.90;;;;;;6245709;23;20186;-80
2023/01/27 12:12:24;;;;;;;6.37;3.87;;;6.70;99.90;;;;;;6247108;22;20483;-80
2023/01/27 12:14:56;;;;;;;5.30;3.20;;;6.80;99.90;;;;;;6244972;23;20150;-80
2023/01/27 12:17:39;;;;;;;5.33;3.13;;;6.90;99.90;;;;;;6247665;22;20135;-80
2023/01/27 12:20:31;;;;;;;3.90;3.10;;;6.80;99.90;;;;;;6245193;23;20145;-81
2023/01/27 12:23:21;;;;;;;4.40;3.37;;;6.80;99.90;;;;;;6245812;23;20179;-80
2023/01/27 12:25:56;;;;;;;5.73;3.50;;;6.80;99.90;;;;;;6239300;23;20545;-80
2023/01/27 12:28:31;;;;;;;3.30;3.00;;;6.80;99.90;;;;;;6246893;23;20635;-80
2023/01/27 12:31:11;;;;;;;4.37;3.27;;;6.80;99.90;;;;;;6246447;23;20154;-80
2023/01/27 12:33:45;;;;;;;4.60;3.30;;;6.80;99.90;;;;;;6248431;22;20544;-80
2023/01/27 12:36:21;;;;;;;5.43;3.00;;;6.80;99.90;;;;;;6245574;23;20151;-80
2023/01/27 12:38:53;;;;;;;4.90;3.03;;;6.90;99.90;;;;;;6245581;23;20148;-80
2023/01/27 12:41:22;;;;;;;5.37;3.10;;;6.80;99.90;;;;;;6245167;23;20636;-80
2023/01/27 12:44:06;;;;;;;4.63;3.03;;;6.70;99.90;;;;;;6245554;23;20224;-80
2023/01/27 12:46:32;;;;;;;5.07;3.30;;;6.80;99.90;;;;;;6245349;23;20183;-82
2023/01/27 12:49:20;;;;;;;3.90;3.07;;;6.90;99.90;;;;;;6246304;23;20231;-81
2023/01/27 12:51:55;;;;;;;7.17;3.33;;;6.90;99.90;;;;;;6245694;23;20570;-81
2023/01/27 12:54:22;;;;;;;5.40;3.37;;;6.90;99.90;;;;;;6245716;23;20207;-81
2023/01/27 12:56:50;;;;;;;5.93;3.40;;;6.80;99.90;;;;;;6247170;22;20130;-81
2023/01/27 12:59:17;;;;;;;4.77;3.27;;;6.80;99.90;;;;;;6246643;23;20600;-81
2023/01/27 13:01:55;;;;;;;4.30;3.53;;;6.80;99.90;;;;;;6246293;23;20140;-81
2023/01/27 13:04:27;;;;;;;4.27;3.70;;;6.80;99.90;;;;;;6247240;23;20128;-81
2023/01/27 13:07:06;;;;;;;4.37;3.43;;;6.70;99.90;;;;;;6247841;23;20232;-81
2023/01/27 13:09:35;;;;;;;4.93;3.60;;;6.70;99.90;;;;;;6247750;23;20144;-81
2023/01/27 13:12:11;;;;;;;6.50;4.03;;;6.70;99.90;;;;;;6246735;23;20205;-81
2023/01/27 13:14:41;;;;;;;4.43;3.43;;;6.80;99.90;;;;;;6245660;23;20151;-81
2023/01/27 13:17:34;;;;;;;7.00;3.70;;;6.60;99.90;;;;;;6245387;22;20144;-81
2023/01/27 13:20:13;;;;;;;4.80;3.77;;;6.70;99.90;;;;;;6245291;23;20149;-80
2023/01/27 13:23:03;;;;;;;5.83;3.53;;;6.70;99.90;;;;;;6244700;23;20222;-79
2023/01/27 13:25:40;;;;;;;4.43;3.70;;;6.70;99.90;;;;;;6231474;23;20303;-81
2023/01/27 13:28:07;;;;;;;4.17;3.30;;;6.60;99.90;;;;;;6245338;22;20138;-80
2023/01/27 13:30:43;;;;;;;9.13;3.93;;;6.50;99.90;;;;;;6244215;23;20160;-80
2023/01/27 13:33:17;;;;;;;6.13;4.00;;;6.60;99.90;;;;;;6244204;23;20193;-78
2023/01/27 13:36:15;;;;;;;6.20;3.40;;;6.60;99.90;;;;;;6244652;23;20540;-80
2023/01/27 13:38:45;;;;;;;5.07;3.60;;;6.50;99.90;;;;;;6244178;23;20596;-79
2023/01/27 13:41:21;;;;;;;3.90;3.33;;;6.50;99.90;;;;;;6244753;23;20182;-80
2023/01/27 13:43:58;;;;;;;4.20;3.20;;;6.30;99.90;;;;;;6244486;23;20209;-80
2023/01/27 13:46:32;;;;;;;4.77;3.50;;;6.50;99.90;;;;;;6244653;23;20505;-80
2023/01/27 13:49:03;;;;;;;4.33;3.10;;;6.40;99.90;;;;;;6244686;23;20485;-80
2023/01/27 13:51:32;;;;;;;6.73;3.60;;;6.40;99.90;;;;;;6244846;23;20492;-80
2023/01/27 13:54:01;;;;;;;4.73;3.40;;;6.40;99.90;;;;;;6245505;23;20138;-80
2023/01/27 13:56:39;;;;;;;4.37;3.20;;;6.50;99.90;;;;;;6243863;23;20190;-80